createdAt,value
2022-09-11T00:00:22.069Z,1018.38
2022-09-11T00:00:53.069Z,1018.35
2022-09-11T00:01:23.995Z,1018.35
2022-09-11T00:01:55.175Z,1018.38
2022-09-11T00:02:25.731Z,1018.35
2022-09-11T00:02:56.195Z,1018.36
2022-09-11T00:03:27.214Z,1018.36
2022-09-11T00:03:58.179Z,1018.37
2022-09-11T00:04:29.096Z,1018.35
2022-09-11T00:05:00.295Z,1018.34
2022-09-11T00:05:30.790Z,1018.34
2022-09-11T00:06:01.297Z,1018.33
2022-09-11T00:06:32.223Z,1018.35
2022-09-11T00:07:03.107Z,1018.34
2022-09-11T00:07:34.022Z,1018.35
2022-09-11T00:08:05.122Z,1018.36
2022-09-11T00:08:35.608Z,1018.33
2022-09-11T00:09:06.587Z,1018.35
2022-09-11T00:09:37.495Z,1018.35
2022-09-11T00:10:08.405Z,1018.36
2022-09-11T00:10:39.393Z,1018.35
2022-09-11T00:11:10.526Z,1018.34
2022-09-11T00:11:41.021Z,1018.33
2022-09-11T00:12:11.913Z,1018.34
2022-09-11T00:12:42.839Z,1018.35
2022-09-11T00:13:13.833Z,1018.34
2022-09-11T00:13:44.744Z,1018.34
2022-09-11T00:14:15.915Z,1018.32
2022-09-11T00:14:46.321Z,1018.33
2022-09-11T00:15:17.239Z,1018.34
2022-09-11T00:15:48.185Z,1018.36
2022-09-11T00:16:19.296Z,1018.35
2022-09-11T00:16:49.719Z,1018.38
2022-09-11T00:17:20.822Z,1018.38
2022-09-11T00:17:51.303Z,1018.38
2022-09-11T00:18:22.285Z,1018.37
2022-09-11T00:18:53.191Z,1018.39
2022-09-11T00:19:24.158Z,1018.39
2022-09-11T00:19:55.080Z,1018.36
2022-09-11T00:20:26.274Z,1018.38
2022-09-11T00:20:56.766Z,1018.36
2022-09-11T00:21:27.778Z,1018.36
2022-09-11T00:21:58.289Z,1018.35
2022-09-11T00:22:29.196Z,1018.35
2022-09-11T00:23:00.185Z,1018.33
2022-09-11T00:23:31.307Z,1018.33
2022-09-11T00:24:01.790Z,1018.33
2022-09-11T00:24:32.776Z,1018.32
2022-09-11T00:25:03.762Z,1018.32
2022-09-11T00:25:34.768Z,1018.30
2022-09-11T00:26:05.198Z,1018.30
2022-09-11T00:26:36.317Z,1018.28
2022-09-11T00:27:06.790Z,1018.28
2022-09-11T00:27:37.675Z,1018.30
2022-09-11T00:28:08.597Z,1018.29
2022-09-11T00:28:39.519Z,1018.29
2022-09-11T00:29:10.496Z,1018.28
2022-09-11T00:29:41.611Z,1018.26
2022-09-11T00:30:12.089Z,1018.27
2022-09-11T00:30:43.081Z,1018.28
2022-09-11T00:31:13.618Z,1018.30
2022-09-11T00:31:44.123Z,1018.28
2022-09-11T00:32:14.576Z,1018.30
2022-09-11T00:32:45.766Z,1018.26
2022-09-11T00:33:16.228Z,1018.29
2022-09-11T00:33:47.235Z,1018.28
2022-09-11T00:34:18.186Z,1018.28
2022-09-11T00:34:49.099Z,1018.26
2022-09-11T00:35:20.071Z,1018.26
2022-09-11T00:35:51.160Z,1018.28
2022-09-11T00:36:21.647Z,1018.25
2022-09-11T00:36:52.583Z,1018.26
2022-09-11T00:37:23.495Z,1018.23
2022-09-11T00:37:54.412Z,1018.26
2022-09-11T00:38:25.332Z,1018.26
2022-09-11T00:38:56.522Z,1018.28
2022-09-11T00:39:26.985Z,1018.24
2022-09-11T00:39:58.032Z,1018.25
2022-09-11T00:40:28.485Z,1018.24
2022-09-11T00:40:59.400Z,1018.23
2022-09-11T00:41:30.324Z,1018.23
2022-09-11T00:42:01.512Z,1018.25
2022-09-11T00:42:32.004Z,1018.26
2022-09-11T00:43:02.998Z,1018.25
2022-09-11T00:43:33.984Z,1018.25
2022-09-11T00:44:04.866Z,1018.25
2022-09-11T00:44:35.842Z,1018.23
2022-09-11T00:45:06.959Z,1018.25
2022-09-11T00:45:37.494Z,1018.25
2022-09-11T00:46:08.059Z,1018.23
2022-09-11T00:46:38.565Z,1018.25
2022-09-11T00:47:09.474Z,1018.26
2022-09-11T00:47:40.390Z,1018.25
2022-09-11T00:48:11.477Z,1018.23
2022-09-11T00:48:41.970Z,1018.22
2022-09-11T00:49:12.882Z,1018.21
2022-09-11T00:49:43.867Z,1018.20
2022-09-11T00:50:14.797Z,1018.19
2022-09-11T00:50:45.799Z,1018.21
2022-09-11T00:51:16.494Z,1018.19
2022-09-11T00:51:46.946Z,1018.16
2022-09-11T00:52:17.930Z,1018.15
2022-09-11T00:52:52.489Z,1018.18
2022-09-11T00:53:19.862Z,1018.16
2022-09-11T00:53:50.785Z,1018.16
2022-09-11T00:54:21.959Z,1018.19
2022-09-11T00:54:52.472Z,1018.17
2022-09-11T00:55:22.964Z,1018.18
2022-09-11T00:55:53.880Z,1018.15
2022-09-11T00:56:24.804Z,1018.18
2022-09-11T00:56:55.718Z,1018.18
2022-09-11T00:57:26.869Z,1018.17
2022-09-11T00:57:57.363Z,1018.17
2022-09-11T00:58:28.276Z,1018.17
2022-09-11T00:58:59.192Z,1018.17
2022-09-11T00:59:30.109Z,1018.15
2022-09-11T01:00:01.064Z,1018.17
2022-09-11T01:00:32.319Z,1018.16
2022-09-11T01:01:02.888Z,1018.13
2022-09-11T01:01:33.439Z,1018.17
2022-09-11T01:02:03.972Z,1018.16
2022-09-11T01:02:34.430Z,1018.14
2022-09-11T01:03:05.346Z,1018.13
2022-09-11T01:03:36.531Z,1018.13
2022-09-11T01:04:07.024Z,1018.13
2022-09-11T01:04:38.004Z,1018.14
2022-09-11T01:05:08.970Z,1018.11
2022-09-11T01:05:39.942Z,1018.08
2022-09-11T01:06:10.853Z,1018.07
2022-09-11T01:06:41.962Z,1018.06
2022-09-11T01:07:12.454Z,1018.09
2022-09-11T01:07:43.388Z,1018.10
2022-09-11T01:08:14.329Z,1018.11
2022-09-11T01:08:45.263Z,1018.06
2022-09-11T01:09:16.180Z,1018.06
2022-09-11T01:09:47.355Z,1018.08
2022-09-11T01:10:17.848Z,1018.06
2022-09-11T01:10:48.772Z,1018.08
2022-09-11T01:11:19.764Z,1018.07
2022-09-11T01:11:50.685Z,1018.08
2022-09-11T01:12:21.610Z,1018.08
2022-09-11T01:12:52.771Z,1018.07
2022-09-11T01:13:23.252Z,1018.09
2022-09-11T01:13:54.241Z,1018.10
2022-09-11T01:14:25.216Z,1018.12
2022-09-11T01:14:56.133Z,1018.11
2022-09-11T01:15:27.164Z,1018.14
2022-09-11T01:15:57.819Z,1018.15
2022-09-11T01:16:28.367Z,1018.16
2022-09-11T01:16:58.899Z,1018.17
2022-09-11T01:18:50.761Z,1018.09
2022-09-11T01:19:21.178Z,1018.10
2022-09-11T01:19:52.068Z,1018.11
2022-09-11T01:20:22.994Z,1018.13
2022-09-11T01:20:53.975Z,1018.11
2022-09-11T01:21:24.885Z,1018.10
2022-09-11T01:21:55.996Z,1018.13
2022-09-11T01:22:26.504Z,1018.10
2022-09-11T01:22:57.009Z,1018.10
2022-09-11T01:23:27.956Z,1018.06
2022-09-11T01:23:58.951Z,1018.03
2022-09-11T01:24:29.447Z,1018.05
2022-09-11T01:25:00.545Z,1018.04
2022-09-11T01:25:31.022Z,1018.03
2022-09-11T01:26:01.978Z,1018.04
2022-09-11T01:26:32.966Z,1018.02
2022-09-11T01:27:03.880Z,1018.04
2022-09-11T01:27:34.801Z,1018.03
2022-09-11T01:28:05.916Z,1018.04
2022-09-11T01:28:36.398Z,1018.00
2022-09-11T01:29:07.325Z,1018.02
2022-09-11T01:29:38.308Z,1018.01
2022-09-11T01:30:11.710Z,1018.01
2022-09-11T01:30:39.987Z,1018.02
2022-09-11T01:31:11.191Z,1018.01
2022-09-11T01:31:41.702Z,1018.04
2022-09-11T01:32:12.192Z,1018.03
2022-09-11T01:32:43.105Z,1018.01
2022-09-11T01:33:14.001Z,1018.01
2022-09-11T01:33:44.985Z,1018.02
2022-09-11T01:34:16.121Z,1018.04
2022-09-11T01:34:46.608Z,1018.00
2022-09-11T01:35:17.592Z,1017.99
2022-09-11T01:35:48.558Z,1017.99
2022-09-11T01:36:19.588Z,1018.01
2022-09-11T01:36:49.985Z,1018.03
2022-09-11T01:37:21.169Z,1018.01
2022-09-11T01:37:51.659Z,1018.00
2022-09-11T01:38:22.687Z,1018.00
2022-09-11T01:38:53.091Z,1018.01
2022-09-11T01:39:24.009Z,1018.00
2022-09-11T01:39:54.944Z,1018.02
2022-09-11T01:40:26.055Z,1018.02
2022-09-11T01:40:56.552Z,1018.03
2022-09-11T01:41:27.514Z,1018.04
2022-09-11T01:41:58.422Z,1018.05
2022-09-11T01:42:29.335Z,1018.04
2022-09-11T01:43:00.314Z,1018.04
2022-09-11T01:43:31.433Z,1018.02
2022-09-11T01:44:01.915Z,1018.01
2022-09-11T01:44:32.905Z,1018.01
2022-09-11T01:45:03.897Z,1018.01
2022-09-11T01:45:34.823Z,1018.02
2022-09-11T01:46:05.839Z,1018.01
2022-09-11T01:46:36.517Z,1018.02
2022-09-11T01:47:07.012Z,1018.03
2022-09-11T01:47:37.923Z,1018.02
2022-09-11T01:48:08.838Z,1018.01
2022-09-11T01:48:39.760Z,1018.04
2022-09-11T01:49:10.736Z,1018.04
2022-09-11T01:49:41.850Z,1018.05
2022-09-11T01:50:12.337Z,1018.04
2022-09-11T01:50:43.251Z,1018.02
2022-09-11T01:51:14.154Z,1018.00
2022-09-11T01:51:45.136Z,1018.02
2022-09-11T01:52:16.052Z,1018.01
2022-09-11T01:52:47.242Z,1017.98
2022-09-11T01:53:17.743Z,1017.97
2022-09-11T01:53:50.332Z,1018.01
2022-09-11T01:54:19.554Z,1017.99
2022-09-11T01:54:50.532Z,1017.98
2022-09-11T01:55:21.518Z,1018.01
2022-09-11T01:55:52.624Z,1018.03
2022-09-11T01:56:23.117Z,1018.02
2022-09-11T01:56:54.120Z,1018.01
2022-09-11T01:57:24.601Z,1018.01
2022-09-11T01:57:55.591Z,1018.03
2022-09-11T01:58:26.504Z,1018.02
2022-09-11T01:58:57.620Z,1017.99
2022-09-11T01:59:28.163Z,1017.97
2022-09-11T01:59:58.576Z,1018.01
2022-09-11T02:00:29.531Z,1018.03
2022-09-11T02:01:00.492Z,1018.00
2022-09-11T02:01:31.434Z,1018.01
2022-09-11T02:02:02.661Z,1018.04
2022-09-11T02:02:33.085Z,1018.01
2022-09-11T02:03:04.011Z,1017.99
2022-09-11T02:03:34.927Z,1018.01
2022-09-11T02:04:05.842Z,1017.99
2022-09-11T02:04:36.751Z,1017.96
2022-09-11T02:05:07.933Z,1017.98
2022-09-11T02:05:38.430Z,1017.98
2022-09-11T02:06:09.413Z,1017.97
2022-09-11T02:06:40.334Z,1017.97
2022-09-11T02:07:11.289Z,1017.97
2022-09-11T02:07:42.206Z,1017.95
2022-09-11T02:08:13.325Z,1017.98
2022-09-11T02:08:43.823Z,1017.97
2022-09-11T02:09:14.829Z,1017.99
2022-09-11T02:09:45.750Z,1018.00
2022-09-11T02:10:16.665Z,1017.98
2022-09-11T02:10:47.585Z,1017.96
2022-09-11T02:11:18.672Z,1017.95
2022-09-11T02:11:49.155Z,1017.93
2022-09-11T02:12:20.110Z,1017.92
2022-09-11T02:12:51.019Z,1017.89
2022-09-11T02:13:24.951Z,1017.90
2022-09-11T02:13:53.065Z,1017.91
2022-09-11T02:14:23.557Z,1017.92
2022-09-11T02:14:54.486Z,1017.92
2022-09-11T02:15:25.402Z,1017.92
2022-09-11T02:15:56.399Z,1017.94
2022-09-11T02:16:26.915Z,1017.92
2022-09-11T02:16:57.645Z,1017.92
2022-09-11T02:17:28.114Z,1017.92
2022-09-11T02:17:59.098Z,1017.92
2022-09-11T02:18:30.048Z,1017.93
2022-09-11T02:19:00.969Z,1017.94
2022-09-11T02:19:31.880Z,1017.91
2022-09-11T02:20:02.982Z,1017.91
2022-09-11T02:20:33.469Z,1017.94
2022-09-11T02:21:04.461Z,1017.93
2022-09-11T02:21:35.379Z,1017.91
2022-09-11T02:22:06.297Z,1017.91
2022-09-11T02:22:37.274Z,1017.90
2022-09-11T02:23:08.389Z,1017.88
2022-09-11T02:23:38.873Z,1017.87
2022-09-11T02:24:09.856Z,1017.88
2022-09-11T02:24:40.804Z,1017.86
2022-09-11T02:25:11.726Z,1017.85
2022-09-11T02:25:42.719Z,1017.85
2022-09-11T02:26:13.829Z,1017.87
2022-09-11T02:26:44.313Z,1017.87
2022-09-11T02:27:15.236Z,1017.87
2022-09-11T02:27:46.194Z,1017.89
2022-09-11T02:28:17.176Z,1017.90
2022-09-11T02:28:48.172Z,1017.90
2022-09-11T02:29:19.298Z,1017.89
2022-09-11T02:29:49.784Z,1017.88
2022-09-11T02:30:20.769Z,1017.88
2022-09-11T02:30:51.682Z,1017.90
2022-09-11T02:31:22.639Z,1017.90
2022-09-11T02:31:53.565Z,1017.89
2022-09-11T02:32:24.748Z,1017.91
2022-09-11T02:32:55.223Z,1017.91
2022-09-11T02:33:26.135Z,1017.91
2022-09-11T02:33:57.107Z,1017.89
2022-09-11T02:34:28.024Z,1017.90
2022-09-11T02:34:58.934Z,1017.92
2022-09-11T02:35:30.045Z,1017.92
2022-09-11T02:36:00.521Z,1017.91
2022-09-11T02:36:31.447Z,1017.91
2022-09-11T02:37:02.380Z,1017.90
2022-09-11T02:37:33.304Z,1017.89
2022-09-11T02:38:04.273Z,1017.87
2022-09-11T02:38:35.373Z,1017.88
2022-09-11T02:39:05.868Z,1017.86
2022-09-11T02:39:36.867Z,1017.88
2022-09-11T02:40:07.506Z,1017.87
2022-09-11T02:40:37.961Z,1017.86
2022-09-11T02:41:08.871Z,1017.84
2022-09-11T02:41:39.976Z,1017.83
2022-09-11T02:42:10.474Z,1017.82
2022-09-11T02:42:41.401Z,1017.82
2022-09-11T02:43:12.367Z,1017.83
2022-09-11T02:43:43.454Z,1017.83
2022-09-11T02:44:13.999Z,1017.84
2022-09-11T02:44:45.109Z,1017.84
2022-09-11T02:45:15.604Z,1017.85
2022-09-11T02:45:46.560Z,1017.86
2022-09-11T02:46:17.026Z,1017.88
2022-09-11T02:46:47.953Z,1017.83
2022-09-11T02:47:18.866Z,1017.86
2022-09-11T02:47:49.991Z,1017.86
2022-09-11T02:48:20.461Z,1017.86
2022-09-11T02:48:51.372Z,1017.83
2022-09-11T02:49:22.286Z,1017.86
2022-09-11T02:49:53.209Z,1017.86
2022-09-11T02:50:24.120Z,1017.84
2022-09-11T02:50:55.230Z,1017.84
2022-09-11T02:51:25.704Z,1017.83
2022-09-11T02:51:56.605Z,1017.84
2022-09-11T02:52:27.515Z,1017.83
2022-09-11T02:52:58.471Z,1017.82
2022-09-11T02:53:29.427Z,1017.81
2022-09-11T02:54:00.549Z,1017.80
2022-09-11T02:54:31.036Z,1017.77
2022-09-11T02:55:01.956Z,1017.81
2022-09-11T02:55:32.899Z,1017.79
2022-09-11T02:56:03.812Z,1017.76
2022-09-11T02:56:34.793Z,1017.76
2022-09-11T02:57:05.902Z,1017.77
2022-09-11T02:57:36.394Z,1017.78
2022-09-11T02:58:07.303Z,1017.79
2022-09-11T02:58:38.254Z,1017.79
2022-09-11T02:59:09.164Z,1017.79
2022-09-11T02:59:40.078Z,1017.77
2022-09-11T03:00:11.185Z,1017.81
2022-09-11T03:00:41.684Z,1017.79
2022-09-11T03:01:12.188Z,1017.83
2022-09-11T03:01:43.059Z,1017.83
2022-09-11T03:02:13.514Z,1017.85
2022-09-11T03:02:44.468Z,1017.87
2022-09-11T03:03:15.644Z,1017.87
2022-09-11T03:03:46.513Z,1017.85
2022-09-11T03:04:16.644Z,1017.89
2022-09-11T03:04:47.562Z,1017.91
2022-09-11T03:05:18.491Z,1017.89
2022-09-11T03:05:49.405Z,1017.90
2022-09-11T03:06:20.498Z,1017.89
2022-09-11T03:06:50.956Z,1017.91
2022-09-11T03:07:21.870Z,1017.93
2022-09-11T03:07:52.775Z,1017.91
2022-09-11T03:08:23.729Z,1017.90
2022-09-11T03:08:54.650Z,1017.91
2022-09-11T03:09:25.767Z,1017.91
2022-09-11T03:09:56.232Z,1017.90
2022-09-11T03:10:27.219Z,1017.89
2022-09-11T03:10:58.160Z,1017.91
2022-09-11T03:11:29.141Z,1017.90
2022-09-11T03:12:00.082Z,1017.91
2022-09-11T03:12:31.199Z,1017.91
2022-09-11T03:13:01.682Z,1017.91
2022-09-11T03:13:32.634Z,1017.93
2022-09-11T03:14:03.543Z,1017.91
2022-09-11T03:14:34.458Z,1017.92
2022-09-11T03:15:05.437Z,1017.88
2022-09-11T03:15:36.548Z,1017.94
2022-09-11T03:16:07.127Z,1017.92
2022-09-11T03:16:37.591Z,1017.92
2022-09-11T03:17:08.538Z,1017.91
2022-09-11T03:17:39.456Z,1017.92
2022-09-11T03:18:10.436Z,1017.93
2022-09-11T03:18:41.617Z,1017.93
2022-09-11T03:19:12.015Z,1017.94
2022-09-11T03:19:42.938Z,1017.94
2022-09-11T03:20:13.827Z,1017.93
2022-09-11T03:20:44.755Z,1017.96
2022-09-11T03:21:15.663Z,1017.94
2022-09-11T03:21:46.772Z,1017.95
2022-09-11T03:22:17.253Z,1017.95
2022-09-11T03:22:48.163Z,1017.94
2022-09-11T03:23:19.082Z,1017.93
2022-09-11T03:23:50.026Z,1017.93
2022-09-11T03:24:20.950Z,1017.91
2022-09-11T03:24:52.043Z,1017.94
2022-09-11T03:25:22.524Z,1017.94
2022-09-11T03:25:53.445Z,1017.93
2022-09-11T03:26:24.414Z,1017.93
2022-09-11T03:26:55.354Z,1017.91
2022-09-11T03:27:26.333Z,1017.90
2022-09-11T03:27:57.446Z,1017.91
2022-09-11T03:28:27.929Z,1017.89
2022-09-11T03:28:58.886Z,1017.88
2022-09-11T03:29:29.799Z,1017.82
2022-09-11T03:30:00.700Z,1017.84
2022-09-11T03:30:31.692Z,1017.84
2022-09-11T03:31:02.805Z,1017.79
2022-09-11T03:31:37.300Z,1017.78
2022-09-11T03:32:05.249Z,1017.76
2022-09-11T03:32:35.256Z,1017.77
2022-09-11T03:33:05.692Z,1017.78
2022-09-11T03:33:36.882Z,1017.78
2022-09-11T03:34:07.361Z,1017.81
2022-09-11T03:34:38.346Z,1017.78
2022-09-11T03:35:09.330Z,1017.75
2022-09-11T03:35:40.248Z,1017.70
2022-09-11T03:36:11.165Z,1017.71
2022-09-11T03:36:42.295Z,1017.73
2022-09-11T03:37:12.775Z,1017.71
2022-09-11T03:37:43.698Z,1017.68
2022-09-11T03:38:14.602Z,1017.69
2022-09-11T03:38:45.240Z,1017.71
2022-09-11T03:39:16.201Z,1017.70
2022-09-11T03:39:47.415Z,1017.70
2022-09-11T03:40:17.916Z,1017.69
2022-09-11T03:40:48.836Z,1017.68
2022-09-11T03:41:19.747Z,1017.63
2022-09-11T03:41:50.698Z,1017.67
2022-09-11T03:42:21.620Z,1017.67
2022-09-11T03:42:52.740Z,1017.71
2022-09-11T03:43:23.222Z,1017.71
2022-09-11T03:43:54.138Z,1017.70
2022-09-11T03:44:25.107Z,1017.73
2022-09-11T03:44:56.019Z,1017.75
2022-09-11T03:45:26.949Z,1017.74
2022-09-11T03:45:58.256Z,1017.70
2022-09-11T03:46:28.791Z,1017.70
2022-09-11T03:46:59.693Z,1017.72
2022-09-11T03:47:30.613Z,1017.69
2022-09-11T03:48:01.520Z,1017.75
2022-09-11T03:48:32.443Z,1017.77
2022-09-11T03:49:03.630Z,1017.78
2022-09-11T03:49:34.101Z,1017.79
2022-09-11T03:50:05.016Z,1017.81
2022-09-11T03:50:35.918Z,1017.80
2022-09-11T03:51:06.830Z,1017.81
2022-09-11T03:51:37.760Z,1017.80
2022-09-11T03:52:08.865Z,1017.81
2022-09-11T03:52:39.360Z,1017.79
2022-09-11T03:53:09.828Z,1017.79
2022-09-11T03:53:40.860Z,1017.81
2022-09-11T03:54:11.276Z,1017.74
2022-09-11T03:54:42.261Z,1017.79
2022-09-11T03:55:13.436Z,1017.81
2022-09-11T03:55:43.921Z,1017.80
2022-09-11T03:56:14.831Z,1017.87
2022-09-11T03:56:45.811Z,1017.86
2022-09-11T03:57:16.749Z,1017.83
2022-09-11T03:57:47.734Z,1017.84
2022-09-11T03:58:18.815Z,1017.82
2022-09-11T03:58:49.305Z,1017.84
2022-09-11T03:59:20.289Z,1017.82
2022-09-11T03:59:51.714Z,1017.80
2022-09-11T04:00:22.129Z,1017.76
2022-09-11T04:00:53.073Z,1017.81
2022-09-11T04:01:24.336Z,1017.81
2022-09-11T04:01:54.896Z,1017.82
2022-09-11T04:02:25.414Z,1017.84
2022-09-11T04:02:56.401Z,1017.83
2022-09-11T04:03:27.311Z,1017.83
2022-09-11T04:03:58.220Z,1017.76
2022-09-11T04:04:29.328Z,1017.80
2022-09-11T04:04:59.805Z,1017.78
2022-09-11T04:05:30.796Z,1017.76
2022-09-11T04:06:01.678Z,1017.80
2022-09-11T04:06:32.667Z,1017.78
2022-09-11T04:07:03.588Z,1017.76
2022-09-11T04:07:34.697Z,1017.75
2022-09-11T04:08:05.177Z,1017.78
2022-09-11T04:08:36.090Z,1017.76
2022-09-11T04:09:07.012Z,1017.76
2022-09-11T04:09:37.935Z,1017.75
2022-09-11T04:10:08.886Z,1017.70
2022-09-11T04:10:40.007Z,1017.75
2022-09-11T04:11:10.473Z,1017.77
2022-09-11T04:11:41.382Z,1017.74
2022-09-11T04:12:12.295Z,1017.74
2022-09-11T04:12:43.294Z,1017.77
2022-09-11T04:13:14.215Z,1017.77
2022-09-11T04:13:45.406Z,1017.75
2022-09-11T04:14:15.885Z,1017.77
2022-09-11T04:14:46.798Z,1017.76
2022-09-11T04:15:17.776Z,1017.76
2022-09-11T04:15:48.693Z,1017.74
2022-09-11T04:16:19.765Z,1017.74
2022-09-11T04:16:50.692Z,1017.72
2022-09-11T04:17:21.174Z,1017.72
2022-09-11T04:17:52.174Z,1017.73
2022-09-11T04:18:23.083Z,1017.75
2022-09-11T04:18:53.999Z,1017.72
2022-09-11T04:19:24.981Z,1017.72
2022-09-11T04:19:56.145Z,1017.73
2022-09-11T04:20:26.611Z,1017.71
2022-09-11T04:20:57.595Z,1017.71
2022-09-11T04:21:28.576Z,1017.72
2022-09-11T04:21:59.488Z,1017.73
2022-09-11T04:22:30.407Z,1017.74
2022-09-11T04:23:01.581Z,1017.76
2022-09-11T04:23:32.064Z,1017.74
2022-09-11T04:24:02.940Z,1017.78
2022-09-11T04:24:33.923Z,1017.78
2022-09-11T04:25:04.911Z,1017.80
2022-09-11T04:25:35.869Z,1017.80
2022-09-11T04:26:07.058Z,1017.84
2022-09-11T04:26:37.508Z,1017.85
2022-09-11T04:27:08.470Z,1017.85
2022-09-11T04:27:39.381Z,1017.84
2022-09-11T04:28:10.307Z,1017.81
2022-09-11T04:28:41.294Z,1017.84
2022-09-11T04:29:12.401Z,1017.83
2022-09-11T04:29:42.885Z,1017.83
2022-09-11T04:30:13.845Z,1017.84
2022-09-11T04:30:44.766Z,1017.82
2022-09-11T04:31:15.853Z,1017.79
2022-09-11T04:31:46.319Z,1017.82
2022-09-11T04:32:17.475Z,1017.83
2022-09-11T04:32:47.950Z,1017.84
2022-09-11T04:33:18.939Z,1017.82
2022-09-11T04:33:49.825Z,1017.84
2022-09-11T04:34:20.747Z,1017.88
2022-09-11T04:34:51.731Z,1017.87
2022-09-11T04:35:22.894Z,1017.88
2022-09-11T04:35:53.344Z,1017.87
2022-09-11T04:36:24.329Z,1017.87
2022-09-11T04:36:55.318Z,1017.92
2022-09-11T04:37:26.303Z,1017.89
2022-09-11T04:37:57.177Z,1017.90
2022-09-11T04:38:28.290Z,1017.91
2022-09-11T04:38:58.765Z,1017.88
2022-09-11T04:39:29.674Z,1017.91
2022-09-11T04:40:00.675Z,1017.90
2022-09-11T04:40:31.149Z,1017.88
2022-09-11T04:41:02.064Z,1017.89
2022-09-11T04:41:33.181Z,1017.88
2022-09-11T04:42:03.664Z,1017.86
2022-09-11T04:42:34.624Z,1017.91
2022-09-11T04:43:05.604Z,1017.91
2022-09-11T04:43:36.534Z,1017.93
2022-09-11T04:44:07.422Z,1017.94
2022-09-11T04:44:38.609Z,1017.91
2022-09-11T04:45:09.095Z,1017.95
2022-09-11T04:45:40.101Z,1017.95
2022-09-11T04:46:10.551Z,1017.96
2022-09-11T04:46:41.473Z,1017.98
2022-09-11T04:47:12.386Z,1017.95
2022-09-11T04:47:43.566Z,1017.96
2022-09-11T04:48:14.050Z,1017.97
2022-09-11T04:48:44.967Z,1017.99
2022-09-11T04:49:15.888Z,1017.99
2022-09-11T04:49:46.867Z,1018.03
2022-09-11T04:50:17.784Z,1018.03
2022-09-11T04:50:48.944Z,1018.04
2022-09-11T04:51:19.356Z,1018.05
2022-09-11T04:51:50.272Z,1018.05
2022-09-11T04:52:21.186Z,1018.01
2022-09-11T04:52:52.149Z,1018.03
2022-09-11T04:53:23.070Z,1017.97
2022-09-11T04:53:54.249Z,1017.92
2022-09-11T04:54:24.699Z,1017.94
2022-09-11T04:54:55.620Z,1017.95
2022-09-11T04:55:26.552Z,1018.00
2022-09-11T04:55:57.461Z,1017.94
2022-09-11T04:56:28.409Z,1017.94
2022-09-11T04:56:59.557Z,1017.99
2022-09-11T04:57:29.992Z,1018.02
2022-09-11T04:58:00.930Z,1018.00
2022-09-11T04:58:31.869Z,1017.98
2022-09-11T04:59:02.751Z,1017.99
2022-09-11T04:59:33.617Z,1018.00
2022-09-11T05:00:04.659Z,1018.04
2022-09-11T05:00:35.088Z,1017.98
2022-09-11T05:01:06.121Z,1017.99
2022-09-11T05:01:36.821Z,1017.99
2022-09-11T05:02:07.865Z,1017.97
2022-09-11T05:02:38.334Z,1017.98
2022-09-11T05:03:09.459Z,1018.01
2022-09-11T05:03:39.958Z,1018.00
2022-09-11T05:04:10.380Z,1018.00
2022-09-11T05:04:41.306Z,1018.03
2022-09-11T05:05:12.162Z,1018.03
2022-09-11T05:05:43.093Z,1017.98
2022-09-11T05:06:14.196Z,1017.98
2022-09-11T05:06:44.556Z,1017.99
2022-09-11T05:07:15.413Z,1018.00
2022-09-11T05:07:46.272Z,1018.03
2022-09-11T05:08:17.140Z,1018.01
2022-09-11T05:08:48.010Z,1018.03
2022-09-11T05:09:19.053Z,1018.01
2022-09-11T05:09:49.481Z,1018.02
2022-09-11T05:10:20.329Z,1017.99
2022-09-11T05:10:51.257Z,1017.97
2022-09-11T05:11:22.150Z,1017.96
2022-09-11T05:11:53.005Z,1017.98
2022-09-11T05:12:24.051Z,1018.02
2022-09-11T05:12:54.475Z,1018.06
2022-09-11T05:13:25.403Z,1018.03
2022-09-11T05:13:56.280Z,1018.05
2022-09-11T05:14:27.175Z,1018.06
2022-09-11T05:14:58.042Z,1018.06
2022-09-11T05:15:29.174Z,1018.06
2022-09-11T05:15:59.600Z,1018.05
2022-09-11T05:16:30.521Z,1018.07
2022-09-11T05:17:01.405Z,1018.07
2022-09-11T05:17:32.266Z,1018.09
2022-09-11T05:18:03.210Z,1018.10
2022-09-11T05:18:34.256Z,1018.14
2022-09-11T05:19:04.685Z,1018.13
2022-09-11T05:19:35.557Z,1018.13
2022-09-11T05:20:11.193Z,1018.11
2022-09-11T05:20:37.300Z,1018.15
2022-09-11T05:21:08.426Z,1018.16
2022-09-11T05:21:38.837Z,1018.15
2022-09-11T05:22:09.670Z,1018.17
2022-09-11T05:22:40.535Z,1018.17
2022-09-11T05:23:11.398Z,1018.14
2022-09-11T05:23:42.387Z,1018.13
2022-09-11T05:24:13.265Z,1018.13
2022-09-11T05:24:43.684Z,1018.12
2022-09-11T05:25:14.540Z,1018.15
2022-09-11T05:25:45.396Z,1018.14
2022-09-11T05:26:16.256Z,1018.15
2022-09-11T05:26:47.166Z,1018.18
2022-09-11T05:27:18.285Z,1018.19
2022-09-11T05:27:48.724Z,1018.18
2022-09-11T05:28:19.599Z,1018.18
2022-09-11T05:28:50.529Z,1018.17
2022-09-11T05:29:21.461Z,1018.21
2022-09-11T05:29:52.335Z,1018.19
2022-09-11T05:30:23.456Z,1018.22
2022-09-11T05:30:53.892Z,1018.19
2022-09-11T05:31:24.782Z,1018.19
2022-09-11T05:31:55.790Z,1018.19
2022-09-11T05:32:26.729Z,1018.19
2022-09-11T05:32:57.593Z,1018.21
2022-09-11T05:33:28.710Z,1018.22
2022-09-11T05:33:59.147Z,1018.22
2022-09-11T05:34:30.081Z,1018.24
2022-09-11T05:35:01.014Z,1018.23
2022-09-11T05:35:32.564Z,1018.22
2022-09-11T05:36:02.556Z,1018.24
2022-09-11T05:36:33.673Z,1018.24
2022-09-11T05:37:04.139Z,1018.24
2022-09-11T05:37:35.060Z,1018.26
2022-09-11T05:38:05.915Z,1018.26
2022-09-11T05:38:36.758Z,1018.25
2022-09-11T05:39:07.594Z,1018.27
2022-09-11T05:39:38.757Z,1018.26
2022-09-11T05:40:09.175Z,1018.29
2022-09-11T05:40:39.558Z,1018.25
2022-09-11T05:41:10.425Z,1018.28
2022-09-11T05:41:41.294Z,1018.26
2022-09-11T05:42:12.194Z,1018.27
2022-09-11T05:42:43.279Z,1018.26
2022-09-11T05:43:13.691Z,1018.26
2022-09-11T05:43:44.555Z,1018.25
2022-09-11T05:44:15.405Z,1018.29
2022-09-11T05:44:46.277Z,1018.26
2022-09-11T05:45:17.205Z,1018.28
2022-09-11T05:45:48.326Z,1018.31
2022-09-11T05:46:18.783Z,1018.30
2022-09-11T05:46:49.727Z,1018.31
2022-09-11T05:47:20.613Z,1018.36
2022-09-11T05:47:55.410Z,1018.39
2022-09-11T05:48:22.466Z,1018.41
2022-09-11T05:48:53.519Z,1018.41
2022-09-11T05:49:23.971Z,1018.40
2022-09-11T05:49:54.912Z,1018.41
2022-09-11T05:50:25.853Z,1018.41
2022-09-11T05:50:56.714Z,1018.43
2022-09-11T05:51:27.578Z,1018.48
2022-09-11T05:51:58.721Z,1018.45
2022-09-11T05:52:29.142Z,1018.47
2022-09-11T05:53:00.080Z,1018.50
2022-09-11T05:53:30.951Z,1018.53
2022-09-11T05:54:01.802Z,1018.55
2022-09-11T05:54:32.717Z,1018.55
2022-09-11T05:55:03.767Z,1018.57
2022-09-11T05:55:34.204Z,1018.57
2022-09-11T05:56:05.063Z,1018.57
2022-09-11T05:56:35.904Z,1018.56
2022-09-11T05:57:07.968Z,1018.55
2022-09-11T05:57:40.476Z,1018.56
2022-09-11T05:58:08.651Z,1018.62
2022-09-11T05:58:39.078Z,1018.61
2022-09-11T05:59:09.946Z,1018.62
2022-09-11T05:59:40.805Z,1018.61
2022-09-11T06:00:11.745Z,1018.63
2022-09-11T06:00:42.628Z,1018.61
2022-09-11T06:01:13.798Z,1018.65
2022-09-11T06:01:44.258Z,1018.64
2022-09-11T06:02:15.240Z,1018.67
2022-09-11T06:02:46.204Z,1018.66
2022-09-11T06:03:17.068Z,1018.68
2022-09-11T06:03:48.005Z,1018.70
2022-09-11T06:04:19.128Z,1018.70
2022-09-11T06:04:49.595Z,1018.69
2022-09-11T06:05:20.472Z,1018.70
2022-09-11T06:05:51.409Z,1018.71
2022-09-11T06:06:22.334Z,1018.71
2022-09-11T06:06:53.265Z,1018.72
2022-09-11T06:07:24.314Z,1018.73
2022-09-11T06:07:54.747Z,1018.73
2022-09-11T06:08:25.617Z,1018.74
2022-09-11T06:08:56.543Z,1018.75
2022-09-11T06:09:27.478Z,1018.76
2022-09-11T06:10:02.801Z,1018.76
2022-09-11T06:10:29.190Z,1018.76
2022-09-11T06:11:00.125Z,1018.75
2022-09-11T06:11:30.968Z,1018.77
2022-09-11T06:12:01.834Z,1018.81
2022-09-11T06:12:32.701Z,1018.79
2022-09-11T06:13:03.816Z,1018.79
2022-09-11T06:13:34.151Z,1018.81
2022-09-11T06:14:05.020Z,1018.80
2022-09-11T06:14:35.890Z,1018.77